sensor_id;sensor_type;location;lat;lon;timestamp;pressure;altitude;pressure_sealevel;temperature;humidity
44663;BME280;30381;52.754;18.258;2023-04-26T00:01:06;100123.81;;;3.74;100.00
44663;BME280;30381;52.754;18.258;2023-04-26T00:03:34;100121.67;;;3.74;100.00
44663;BME280;30381;52.754;18.258;2023-04-26T00:06:25;100125.38;;;3.75;100.00
44663;BME280;30381;52.754;18.258;2023-04-26T00:08:53;100123.77;;;3.74;100.00
44663;BME280;30381;52.754;18.258;2023-04-26T00:11:24;100131.23;;;3.75;100.00
44663;BME280;30381;52.754;18.258;2023-04-26T00:13:52;100125.79;;;3.74;100.00
44663;BME280;30381;52.754;18.258;2023-04-26T00:16:21;100127.16;;;3.73;100.00
44663;BME280;30381;52.754;18.258;2023-04-26T00:18:55;100130.58;;;3.72;100.00
44663;BME280;30381;52.754;18.258;2023-04-26T00:21:27;100125.71;;;3.71;100.00
44663;BME280;30381;52.754;18.258;2023-04-26T00:24:12;100126.23;;;3.70;100.00
44663;BME280;30381;52.754;18.258;2023-04-26T00:26:54;100131.30;;;3.68;100.00
44663;BME280;30381;52.754;18.258;2023-04-26T00:29:29;100132.99;;;3.67;100.00
44663;BME280;30381;52.754;18.258;2023-04-26T00:32:03;100130.75;;;3.65;100.00
44663;BME280;30381;52.754;18.258;2023-04-26T00:34:45;100129.77;;;3.63;100.00
44663;BME280;30381;52.754;18.258;2023-04-26T00:37:19;100128.53;;;3.62;100.00
44663;BME280;30381;52.754;18.258;2023-04-26T00:39:55;100126.06;;;3.60;100.00
44663;BME280;30381;52.754;18.258;2023-04-26T00:42:29;100128.44;;;3.58;100.00
44663;BME280;30381;52.754;18.258;2023-04-26T00:45:25;100130.32;;;3.55;100.00
44663;BME280;30381;52.754;18.258;2023-04-26T00:49:42;100129.34;;;3.56;100.00
44663;BME280;30381;52.754;18.258;2023-04-26T00:52:19;100127.97;;;3.51;100.00
44663;BME280;30381;52.754;18.258;2023-04-26T00:54:48;100122.71;;;3.49;100.00
44663;BME280;30381;52.754;18.258;2023-04-26T00:57:33;100127.49;;;3.45;100.00
44663;BME280;30381;52.754;18.258;2023-04-26T01:00:12;100128.20;;;3.44;100.00
44663;BME280;30381;52.754;18.258;2023-04-26T01:03:05;100133.45;;;3.41;100.00
44663;BME280;30381;52.754;18.258;2023-04-26T01:05:40;100130.45;;;3.38;100.00
44663;BME280;30381;52.754;18.258;2023-04-26T01:08:10;100132.62;;;3.36;100.00
44663;BME280;30381;52.754;18.258;2023-04-26T01:10:50;100125.98;;;3.34;100.00
44663;BME280;30381;52.754;18.258;2023-04-26T01:13:26;100131.66;;;3.33;100.00
44663;BME280;30381;52.754;18.258;2023-04-26T01:16:13;100129.73;;;3.31;100.00
44663;BME280;30381;52.754;18.258;2023-04-26T01:18:52;100134.98;;;3.30;100.00
44663;BME280;30381;52.754;18.258;2023-04-26T01:21:25;100132.59;;;3.30;100.00
44663;BME280;30381;52.754;18.258;2023-04-26T01:23:52;100134.92;;;3.30;100.00
44663;BME280;30381;52.754;18.258;2023-04-26T01:26:25;100136.00;;;3.30;100.00
44663;BME280;30381;52.754;18.258;2023-04-26T01:29:19;100138.27;;;3.31;100.00
44663;BME280;30381;52.754;18.258;2023-04-26T01:31:52;100143.09;;;3.34;100.00
44663;BME280;30381;52.754;18.258;2023-04-26T01:34:30;100142.66;;;3.40;100.00
44663;BME280;30381;52.754;18.258;2023-04-26T01:37:06;100142.89;;;3.48;100.00
44663;BME280;30381;52.754;18.258;2023-04-26T01:39:42;100140.08;;;3.56;100.00
44663;BME280;30381;52.754;18.258;2023-04-26T01:42:12;100136.48;;;3.64;100.00
44663;BME280;30381;52.754;18.258;2023-04-26T01:44:39;100137.94;;;3.71;100.00
44663;BME280;30381;52.754;18.258;2023-04-26T01:47:06;100142.44;;;3.80;100.00
44663;BME280;30381;52.754;18.258;2023-04-26T01:49:55;100139.20;;;3.89;100.00
44663;BME280;30381;52.754;18.258;2023-04-26T01:52:23;100142.66;;;3.96;100.00
44663;BME280;30381;52.754;18.258;2023-04-26T01:55:01;100143.04;;;4.01;100.00
44663;BME280;30381;52.754;18.258;2023-04-26T01:57:30;100142.26;;;4.07;100.00
44663;BME280;30381;52.754;18.258;2023-04-26T02:00:11;100138.11;;;4.13;100.00
44663;BME280;30381;52.754;18.258;2023-04-26T02:02:41;100138.65;;;4.18;100.00
44663;BME280;30381;52.754;18.258;2023-04-26T02:05:10;100144.40;;;4.23;100.00
44663;BME280;30381;52.754;18.258;2023-04-26T02:08:00;100141.73;;;4.28;100.00
44663;BME280;30381;52.754;18.258;2023-04-26T02:10:38;100142.48;;;4.33;100.00
44663;BME280;30381;52.754;18.258;2023-04-26T02:13:32;100141.77;;;4.38;100.00
44663;BME280;30381;52.754;18.258;2023-04-26T02:16:07;100141.69;;;4.43;100.00
44663;BME280;30381;52.754;18.258;2023-04-26T02:18:42;100142.17;;;4.46;100.00
44663;BME280;30381;52.754;18.258;2023-04-26T02:21:11;100137.67;;;4.49;100.00
44663;BME280;30381;52.754;18.258;2023-04-26T02:23:48;100131.87;;;4.51;100.00
44663;BME280;30381;52.754;18.258;2023-04-26T02:26:17;100134.63;;;4.53;100.00
44663;BME280;30381;52.754;18.258;2023-04-26T02:29:02;100132.69;;;4.55;100.00
44663;BME280;30381;52.754;18.258;2023-04-26T02:31:32;100128.23;;;4.56;100.00
44663;BME280;30381;52.754;18.258;2023-04-26T02:34:11;100130.66;;;4.58;100.00
44663;BME280;30381;52.754;18.258;2023-04-26T02:36:50;100129.78;;;4.59;100.00
44663;BME280;30381;52.754;18.258;2023-04-26T02:39:18;100130.24;;;4.60;100.00
44663;BME280;30381;52.754;18.258;2023-04-26T02:41:52;100131.52;;;4.59;100.00
44663;BME280;30381;52.754;18.258;2023-04-26T02:44:29;100133.29;;;4.59;100.00
44663;BME280;30381;52.754;18.258;2023-04-26T02:47:00;100130.33;;;4.58;100.00
44663;BME280;30381;52.754;18.258;2023-04-26T02:49:43;100125.27;;;4.53;100.00
44663;BME280;30381;52.754;18.258;2023-04-26T02:52:12;100124.25;;;4.48;100.00
44663;BME280;30381;52.754;18.258;2023-04-26T02:54:54;100127.27;;;4.40;100.00
44663;BME280;30381;52.754;18.258;2023-04-26T02:57:27;100124.02;;;4.31;100.00
44663;BME280;30381;52.754;18.258;2023-04-26T02:59:54;100122.13;;;4.23;100.00
44663;BME280;30381;52.754;18.258;2023-04-26T03:02:37;100123.08;;;4.14;100.00
44663;BME280;30381;52.754;18.258;2023-04-26T03:05:07;100124.39;;;4.06;100.00
44663;BME280;30381;52.754;18.258;2023-04-26T03:07:35;100128.55;;;3.99;100.00
44663;BME280;30381;52.754;18.258;2023-04-26T03:10:04;100131.71;;;3.91;100.00
44663;BME280;30381;52.754;18.258;2023-04-26T03:12:40;100134.21;;;3.83;100.00
44663;BME280;30381;52.754;18.258;2023-04-26T03:15:14;100138.44;;;3.77;100.00
44663;BME280;30381;52.754;18.258;2023-04-26T03:17:49;100140.70;;;3.71;100.00
44663;BME280;30381;52.754;18.258;2023-04-26T03:20:26;100142.48;;;3.64;100.00
44663;BME280;30381;52.754;18.258;2023-04-26T03:22:54;100147.48;;;3.59;100.00
44663;BME280;30381;52.754;18.258;2023-04-26T03:25:39;100151.66;;;3.54;100.00
44663;BME280;30381;52.754;18.258;2023-04-26T03:28:06;100152.27;;;3.50;100.00
44663;BME280;30381;52.754;18.258;2023-04-26T03:30:34;100161.59;;;3.45;100.00
44663;BME280;30381;52.754;18.258;2023-04-26T03:33:07;100167.05;;;3.41;100.00
44663;BME280;30381;52.754;18.258;2023-04-26T03:35:35;100166.38;;;3.40;100.00
44663;BME280;30381;52.754;18.258;2023-04-26T03:38:05;100167.04;;;3.39;100.00
44663;BME280;30381;52.754;18.258;2023-04-26T03:40:33;100170.33;;;3.38;100.00
44663;BME280;30381;52.754;18.258;2023-04-26T03:43:00;100171.15;;;3.39;100.00
44663;BME280;30381;52.754;18.258;2023-04-26T03:45:34;100174.54;;;3.41;100.00
44663;BME280;30381;52.754;18.258;2023-04-26T03:48:06;100176.77;;;3.45;100.00
44663;BME280;30381;52.754;18.258;2023-04-26T03:50:36;100180.36;;;3.50;100.00
44663;BME280;30381;52.754;18.258;2023-04-26T03:53:04;100186.23;;;3.57;100.00
44663;BME280;30381;52.754;18.258;2023-04-26T03:55:30;100184.64;;;3.63;100.00
44663;BME280;30381;52.754;18.258;2023-04-26T03:58:07;100184.14;;;3.72;100.00
44663;BME280;30381;52.754;18.258;2023-04-26T04:00:59;100189.81;;;3.87;100.00
44663;BME280;30381;52.754;18.258;2023-04-26T04:03:26;100190.86;;;4.01;100.00
44663;BME280;30381;52.754;18.258;2023-04-26T04:06:06;100192.90;;;4.13;100.00
44663;BME280;30381;52.754;18.258;2023-04-26T04:09:01;100190.05;;;4.26;100.00
44663;BME280;30381;52.754;18.258;2023-04-26T04:11:35;100188.91;;;4.52;100.00
44663;BME280;30381;52.754;18.258;2023-04-26T04:15:47;100188.43;;;4.78;100.00
44663;BME280;30381;52.754;18.258;2023-04-26T04:18:14;100183.97;;;5.62;100.00
44663;BME280;30381;52.754;18.258;2023-04-26T04:20:45;100185.96;;;6.40;100.00
44663;BME280;30381;52.754;18.258;2023-04-26T04:23:31;100185.60;;;7.17;100.00
44663;BME280;30381;52.754;18.258;2023-04-26T04:25:59;100181.30;;;7.91;100.00
44663;BME280;30381;52.754;18.258;2023-04-26T04:28:29;100183.98;;;8.60;100.00
44663;BME280;30381;52.754;18.258;2023-04-26T04:30:56;100183.44;;;9.24;100.00
44663;BME280;30381;52.754;18.258;2023-04-26T04:33:44;100177.02;;;9.89;99.99
44663;BME280;30381;52.754;18.258;2023-04-26T04:36:54;100182.03;;;10.51;99.83
44663;BME280;30381;52.754;18.258;2023-04-26T04:40:49;100180.24;;;11.40;99.99
44663;BME280;30381;52.754;18.258;2023-04-26T05:04:21;100198.58;;;14.63;86.97
44663;BME280;30381;52.754;18.258;2023-04-26T05:07:01;100197.09;;;14.81;85.99
44663;BME280;30381;52.754;18.258;2023-04-26T05:09:38;100201.20;;;14.96;84.91
44663;BME280;30381;52.754;18.258;2023-04-26T05:12:23;100199.48;;;15.13;84.18
44663;BME280;30381;52.754;18.258;2023-04-26T05:15:10;100204.21;;;15.38;84.82
44663;BME280;30381;52.754;18.258;2023-04-26T05:18:25;100206.92;;;15.65;81.26
44663;BME280;30381;52.754;18.258;2023-04-26T05:37:28;100216.14;;;15.99;75.98
44663;BME280;30381;52.754;18.258;2023-04-26T05:47:00;100218.55;;;16.10;71.51
44663;BME280;30381;52.754;18.258;2023-04-26T05:50:13;100223.34;;;16.00;70.98
44663;BME280;30381;52.754;18.258;2023-04-26T05:53:49;100220.95;;;16.00;71.67
44663;BME280;30381;52.754;18.258;2023-04-26T05:56:40;100218.81;;;16.10;69.58
44663;BME280;30381;52.754;18.258;2023-04-26T05:59:40;100218.84;;;16.04;69.08
44663;BME280;30381;52.754;18.258;2023-04-26T06:05:52;100220.29;;;16.27;69.12
44663;BME280;30381;52.754;18.258;2023-04-26T06:09:06;100225.02;;;16.40;67.93
44663;BME280;30381;52.754;18.258;2023-04-26T06:12:07;100225.36;;;16.44;65.64
44663;BME280;30381;52.754;18.258;2023-04-26T06:15:42;100227.88;;;16.42;65.87
44663;BME280;30381;52.754;18.258;2023-04-26T06:18:47;100223.04;;;16.17;63.64
44663;BME280;30381;52.754;18.258;2023-04-26T06:21:33;100230.02;;;16.16;63.91
44663;BME280;30381;52.754;18.258;2023-04-26T06:24:23;100227.45;;;16.16;64.20
44663;BME280;30381;52.754;18.258;2023-04-26T06:27:19;100232.35;;;16.42;63.59
44663;BME280;30381;52.754;18.258;2023-04-26T06:30:19;100229.13;;;16.61;63.71
44663;BME280;30381;52.754;18.258;2023-04-26T06:33:04;100231.77;;;16.79;63.26
44663;BME280;30381;52.754;18.258;2023-04-26T06:36:11;100229.27;;;16.86;62.44
44663;BME280;30381;52.754;18.258;2023-04-26T07:06:27;100239.85;;;16.58;59.06
44663;BME280;30381;52.754;18.258;2023-04-26T07:09:05;100244.42;;;16.68;59.25
44663;BME280;30381;52.754;18.258;2023-04-26T07:12:00;100247.09;;;16.70;58.14
44663;BME280;30381;52.754;18.258;2023-04-26T07:14:42;100246.05;;;16.62;57.68
44663;BME280;30381;52.754;18.258;2023-04-26T07:18:07;100239.42;;;16.72;58.56
44663;BME280;30381;52.754;18.258;2023-04-26T07:20:40;100246.45;;;16.82;57.60
44663;BME280;30381;52.754;18.258;2023-04-26T07:23:13;100246.94;;;16.74;56.63
44663;BME280;30381;52.754;18.258;2023-04-26T07:26:01;100246.77;;;16.48;55.45
44663;BME280;30381;52.754;18.258;2023-04-26T07:28:49;100246.59;;;16.64;55.42
44663;BME280;30381;52.754;18.258;2023-04-26T07:31:41;100251.11;;;16.08;55.49
44663;BME280;30381;52.754;18.258;2023-04-26T07:34:28;100259.14;;;15.39;54.63
44663;BME280;30381;52.754;18.258;2023-04-26T07:37:03;100260.75;;;15.21;53.76
44663;BME280;30381;52.754;18.258;2023-04-26T07:39:47;100255.97;;;15.10;53.38
44663;BME280;30381;52.754;18.258;2023-04-26T07:42:35;100254.28;;;15.04;52.65
44663;BME280;30381;52.754;18.258;2023-04-26T07:58:10;100265.44;;;15.11;52.70
44663;BME280;30381;52.754;18.258;2023-04-26T08:00:58;100273.12;;;14.63;52.78
44663;BME280;30381;52.754;18.258;2023-04-26T08:03:43;100279.71;;;14.29;52.71
44663;BME280;30381;52.754;18.258;2023-04-26T08:06:35;100286.02;;;13.68;52.55
44663;BME280;30381;52.754;18.258;2023-04-26T08:09:12;100284.43;;;13.41;53.38
44663;BME280;30381;52.754;18.258;2023-04-26T08:12:10;100284.52;;;13.02;52.64
44663;BME280;30381;52.754;18.258;2023-04-26T08:15:38;100287.73;;;13.39;53.10
44663;BME280;30381;52.754;18.258;2023-04-26T08:18:30;100291.85;;;13.66;52.88
44663;BME280;30381;52.754;18.258;2023-04-26T08:21:28;100287.73;;;13.91;53.05
44663;BME280;30381;52.754;18.258;2023-04-26T08:24:20;100288.77;;;14.37;51.62
44663;BME280;30381;52.754;18.258;2023-04-26T08:27:07;100287.50;;;14.12;50.92
44663;BME280;30381;52.754;18.258;2023-04-26T08:29:53;100295.63;;;13.60;50.79
44663;BME280;30381;52.754;18.258;2023-04-26T08:32:47;100295.00;;;13.10;50.68
44663;BME280;30381;52.754;18.258;2023-04-26T08:35:40;100297.59;;;13.19;51.82
44663;BME280;30381;52.754;18.258;2023-04-26T08:38:34;100288.39;;;13.90;52.89
44663;BME280;30381;52.754;18.258;2023-04-26T08:41:22;100287.19;;;14.03;52.48
44663;BME280;30381;52.754;18.258;2023-04-26T08:44:13;100289.98;;;13.62;51.82
44663;BME280;30381;52.754;18.258;2023-04-26T08:47:21;100293.94;;;13.12;50.88
44663;BME280;30381;52.754;18.258;2023-04-26T08:50:11;100294.95;;;12.40;50.98
44663;BME280;30381;52.754;18.258;2023-04-26T08:53:07;100293.27;;;12.44;52.15
44663;BME280;30381;52.754;18.258;2023-04-26T08:55:41;100294.59;;;12.95;52.38
44663;BME280;30381;52.754;18.258;2023-04-26T08:58:28;100296.96;;;13.39;50.73
44663;BME280;30381;52.754;18.258;2023-04-26T09:01:05;100303.14;;;13.65;51.35
44663;BME280;30381;52.754;18.258;2023-04-26T09:03:48;100300.23;;;14.01;49.60
44663;BME280;30381;52.754;18.258;2023-04-26T09:06:29;100301.30;;;14.27;49.87
44663;BME280;30381;52.754;18.258;2023-04-26T09:09:12;100299.79;;;14.66;49.35
44663;BME280;30381;52.754;18.258;2023-04-26T09:12:03;100297.95;;;14.91;49.60
44663;BME280;30381;52.754;18.258;2023-04-26T09:15:16;100304.11;;;15.00;49.55
44663;BME280;30381;52.754;18.258;2023-04-26T09:38:16;100327.00;;;15.86;47.42
44663;BME280;30381;52.754;18.258;2023-04-26T09:41:03;100326.20;;;15.80;46.94
44663;BME280;30381;52.754;18.258;2023-04-26T09:43:55;100325.17;;;15.94;46.82
44663;BME280;30381;52.754;18.258;2023-04-26T09:46:56;100318.96;;;16.20;46.84
44663;BME280;30381;52.754;18.258;2023-04-26T09:49:48;100329.73;;;16.03;46.32
44663;BME280;30381;52.754;18.258;2023-04-26T09:52:47;100327.20;;;15.73;46.43
44663;BME280;30381;52.754;18.258;2023-04-26T09:55:36;100325.13;;;15.73;46.14
44663;BME280;30381;52.754;18.258;2023-04-26T09:58:28;100322.34;;;16.06;46.86
44663;BME280;30381;52.754;18.258;2023-04-26T10:01:18;100317.98;;;16.20;46.15
44663;BME280;30381;52.754;18.258;2023-04-26T10:04:18;100318.33;;;15.91;46.18
44663;BME280;30381;52.754;18.258;2023-04-26T10:22:30;100340.91;;;14.59;45.11
44663;BME280;30381;52.754;18.258;2023-04-26T10:25:39;100340.77;;;14.42;45.15
44663;BME280;30381;52.754;18.258;2023-04-26T10:32:06;100345.92;;;14.88;45.08
44663;BME280;30381;52.754;18.258;2023-04-26T10:51:20;100358.36;;;14.42;43.33
44663;BME280;30381;52.754;18.258;2023-04-26T10:54:21;100362.05;;;13.72;43.39
44663;BME280;30381;52.754;18.258;2023-04-26T10:57:23;100363.33;;;13.25;43.15
44663;BME280;30381;52.754;18.258;2023-04-26T11:00:31;100372.02;;;12.88;43.21
44663;BME280;30381;52.754;18.258;2023-04-26T11:03:28;100374.26;;;12.56;43.78
44663;BME280;30381;52.754;18.258;2023-04-26T11:06:14;100376.89;;;12.56;43.80
44663;BME280;30381;52.754;18.258;2023-04-26T11:09:37;100372.72;;;12.55;43.99
44663;BME280;30381;52.754;18.258;2023-04-26T11:12:14;100377.58;;;12.57;43.75
44663;BME280;30381;52.754;18.258;2023-04-26T11:15:05;100379.72;;;12.54;43.56
44663;BME280;30381;52.754;18.258;2023-04-26T11:17:50;100378.52;;;12.59;43.33
44663;BME280;30381;52.754;18.258;2023-04-26T11:20:38;100378.52;;;12.86;43.66
44663;BME280;30381;52.754;18.258;2023-04-26T11:23:38;100367.38;;;13.56;44.17
44663;BME280;30381;52.754;18.258;2023-04-26T11:26:21;100376.77;;;14.09;43.85
44663;BME280;30381;52.754;18.258;2023-04-26T11:29:09;100380.56;;;14.53;43.09
44663;BME280;30381;52.754;18.258;2023-04-26T11:32:17;100376.44;;;14.76;43.13
44663;BME280;30381;52.754;18.258;2023-04-26T11:35:12;100370.55;;;15.27;42.49
44663;BME280;30381;52.754;18.258;2023-04-26T11:38:30;100368.59;;;15.35;42.59
44663;BME280;30381;52.754;18.258;2023-04-26T11:41:12;100371.37;;;15.37;42.46
44663;BME280;30381;52.754;18.258;2023-04-26T11:44:02;100377.48;;;15.57;41.23
44663;BME280;30381;52.754;18.258;2023-04-26T12:01:31;100392.56;;;15.56;40.73
44663;BME280;30381;52.754;18.258;2023-04-26T12:04:57;100391.48;;;15.37;41.15
44663;BME280;30381;52.754;18.258;2023-04-26T12:08:04;100397.92;;;15.60;41.35
44663;BME280;30381;52.754;18.258;2023-04-26T12:11:01;100392.47;;;15.66;40.22
44663;BME280;30381;52.754;18.258;2023-04-26T12:14:15;100392.45;;;15.33;40.34
44663;BME280;30381;52.754;18.258;2023-04-26T12:17:21;100396.22;;;14.91;40.35
44663;BME280;30381;52.754;18.258;2023-04-26T12:20:24;100404.05;;;14.66;40.05
44663;BME280;30381;52.754;18.258;2023-04-26T12:23:27;100406.30;;;14.41;39.89
44663;BME280;30381;52.754;18.258;2023-04-26T12:29:22;100409.60;;;13.99;40.11
44663;BME280;30381;52.754;18.258;2023-04-26T12:32:12;100416.52;;;13.84;40.18
44663;BME280;30381;52.754;18.258;2023-04-26T12:35:19;100418.02;;;13.63;39.98
44663;BME280;30381;52.754;18.258;2023-04-26T12:38:11;100414.34;;;13.47;40.47
44663;BME280;30381;52.754;18.258;2023-04-26T12:40:58;100419.41;;;13.43;40.08
44663;BME280;30381;52.754;18.258;2023-04-26T12:43:37;100415.53;;;13.39;40.14
44663;BME280;30381;52.754;18.258;2023-04-26T12:46:25;100418.80;;;13.53;40.33
44663;BME280;30381;52.754;18.258;2023-04-26T12:48:59;100412.73;;;13.88;40.28
44663;BME280;30381;52.754;18.258;2023-04-26T12:51:49;100410.73;;;14.28;40.47
44663;BME280;30381;52.754;18.258;2023-04-26T12:54:49;100412.25;;;14.44;40.35
44663;BME280;30381;52.754;18.258;2023-04-26T12:57:33;100409.42;;;14.44;40.06
44663;BME280;30381;52.754;18.258;2023-04-26T13:00:32;100417.93;;;14.31;40.22
44663;BME280;30381;52.754;18.258;2023-04-26T13:03:22;100422.66;;;14.11;39.80
44663;BME280;30381;52.754;18.258;2023-04-26T13:06:08;100420.35;;;13.74;39.02
44663;BME280;30381;52.754;18.258;2023-04-26T13:09:38;100428.00;;;13.25;39.41
44663;BME280;30381;52.754;18.258;2023-04-26T13:12:10;100428.44;;;13.01;39.72
44663;BME280;30381;52.754;18.258;2023-04-26T13:14:59;100433.37;;;12.79;39.76
44663;BME280;30381;52.754;18.258;2023-04-26T13:17:56;100437.83;;;12.65;39.81
44663;BME280;30381;52.754;18.258;2023-04-26T13:20:46;100435.02;;;12.63;39.87
44663;BME280;30381;52.754;18.258;2023-04-26T13:23:50;100430.00;;;12.88;40.30
44663;BME280;30381;52.754;18.258;2023-04-26T13:27:08;100429.96;;;13.13;40.52
44663;BME280;30381;52.754;18.258;2023-04-26T13:29:50;100427.70;;;13.17;39.95
44663;BME280;30381;52.754;18.258;2023-04-26T13:32:24;100425.13;;;13.19;40.10
44663;BME280;30381;52.754;18.258;2023-04-26T13:35:29;100428.05;;;13.54;40.47
44663;BME280;30381;52.754;18.258;2023-04-26T13:38:36;100427.08;;;13.86;40.59
44663;BME280;30381;52.754;18.258;2023-04-26T13:41:34;100431.84;;;13.91;39.62
44663;BME280;30381;52.754;18.258;2023-04-26T13:44:27;100430.95;;;13.72;39.07
44663;BME280;30381;52.754;18.258;2023-04-26T13:47:25;100431.41;;;13.62;39.68
44663;BME280;30381;52.754;18.258;2023-04-26T13:50:31;100431.27;;;13.95;40.40
44663;BME280;30381;52.754;18.258;2023-04-26T13:53:37;100437.77;;;14.11;39.60
44663;BME280;30381;52.754;18.258;2023-04-26T13:56:34;100440.73;;;14.05;39.48
44663;BME280;30381;52.754;18.258;2023-04-26T13:59:10;100439.56;;;13.92;39.21
44663;BME280;30381;52.754;18.258;2023-04-26T14:02:05;100436.90;;;13.68;39.59
44663;BME280;30381;52.754;18.258;2023-04-26T14:04:45;100435.79;;;13.44;39.49
44663;BME280;30381;52.754;18.258;2023-04-26T14:07:35;100441.19;;;13.29;39.71
44663;BME280;30381;52.754;18.258;2023-04-26T14:10:21;100441.50;;;13.12;40.05
44663;BME280;30381;52.754;18.258;2023-04-26T14:13:12;100443.20;;;12.94;40.41
44663;BME280;30381;52.754;18.258;2023-04-26T14:16:16;100451.01;;;12.57;40.37
44663;BME280;30381;52.754;18.258;2023-04-26T14:18:49;100457.40;;;12.23;40.41
44663;BME280;30381;52.754;18.258;2023-04-26T14:21:36;100457.55;;;11.92;40.63
44663;BME280;30381;52.754;18.258;2023-04-26T14:25:01;100459.16;;;11.71;40.92
44663;BME280;30381;52.754;18.258;2023-04-26T14:28:05;100467.86;;;11.31;41.20
44663;BME280;30381;52.754;18.258;2023-04-26T14:30:52;100471.27;;;11.17;41.45
44663;BME280;30381;52.754;18.258;2023-04-26T14:33:38;100471.98;;;11.08;41.49
44663;BME280;30381;52.754;18.258;2023-04-26T14:36:29;100468.52;;;11.02;41.68
44663;BME280;30381;52.754;18.258;2023-04-26T14:39:06;100476.13;;;11.01;42.00
44663;BME280;30381;52.754;18.258;2023-04-26T14:41:46;100475.25;;;11.12;42.43
44663;BME280;30381;52.754;18.258;2023-04-26T14:44:50;100472.80;;;11.33;42.97
44663;BME280;30381;52.754;18.258;2023-04-26T14:51:08;100466.73;;;11.90;43.57
44663;BME280;30381;52.754;18.258;2023-04-26T15:05:51;100460.65;;;13.32;42.90
44663;BME280;30381;52.754;18.258;2023-04-26T15:08:17;100469.08;;;13.22;42.73
44663;BME280;30381;52.754;18.258;2023-04-26T15:10:50;100477.55;;;12.99;43.15
44663;BME280;30381;52.754;18.258;2023-04-26T15:13:18;100479.41;;;12.68;42.71
44663;BME280;30381;52.754;18.258;2023-04-26T15:16:14;100478.65;;;12.26;43.02
44663;BME280;30381;52.754;18.258;2023-04-26T15:19:10;100486.23;;;11.92;43.18
44663;BME280;30381;52.754;18.258;2023-04-26T15:22:00;100486.85;;;11.65;43.20
44663;BME280;30381;52.754;18.258;2023-04-26T15:24:27;100492.83;;;11.41;43.44
44663;BME280;30381;52.754;18.258;2023-04-26T15:27:01;100495.71;;;11.27;43.72
44663;BME280;30381;52.754;18.258;2023-04-26T15:29:33;100503.08;;;11.17;44.08
44663;BME280;30381;52.754;18.258;2023-04-26T15:32:00;100506.48;;;11.15;44.55
44663;BME280;30381;52.754;18.258;2023-04-26T15:34:29;100507.17;;;11.15;44.88
44663;BME280;30381;52.754;18.258;2023-04-26T15:37:03;100500.30;;;11.11;44.85
44663;BME280;30381;52.754;18.258;2023-04-26T15:40:09;100503.27;;;11.11;45.17
44663;BME280;30381;52.754;18.258;2023-04-26T15:42:51;100507.67;;;11.12;45.31
44663;BME280;30381;52.754;18.258;2023-04-26T15:45:20;100503.89;;;11.09;45.44
44663;BME280;30381;52.754;18.258;2023-04-26T15:47:50;100508.76;;;11.13;45.57
44663;BME280;30381;52.754;18.258;2023-04-26T15:50:20;100503.25;;;11.19;45.44
44663;BME280;30381;52.754;18.258;2023-04-26T15:52:55;100503.19;;;11.30;45.30
44663;BME280;30381;52.754;18.258;2023-04-26T15:55:23;100498.77;;;11.31;45.22
44663;BME280;30381;52.754;18.258;2023-04-26T15:57:52;100500.95;;;11.27;45.37
44663;BME280;30381;52.754;18.258;2023-04-26T16:00:19;100498.61;;;11.19;45.43
44663;BME280;30381;52.754;18.258;2023-04-26T16:02:55;100499.77;;;11.09;45.33
44663;BME280;30381;52.754;18.258;2023-04-26T16:05:26;100502.89;;;10.97;45.51
44663;BME280;30381;52.754;18.258;2023-04-26T16:07:54;100506.50;;;10.85;45.63
44663;BME280;30381;52.754;18.258;2023-04-26T16:10:27;100507.69;;;10.75;45.82
44663;BME280;30381;52.754;18.258;2023-04-26T16:12:54;100508.47;;;10.68;46.02
44663;BME280;30381;52.754;18.258;2023-04-26T16:15:40;100515.17;;;10.65;46.48
44663;BME280;30381;52.754;18.258;2023-04-26T16:18:43;100521.80;;;10.52;46.06
44663;BME280;30381;52.754;18.258;2023-04-26T16:21:19;100526.20;;;10.30;46.45
44663;BME280;30381;52.754;18.258;2023-04-26T16:24:26;100538.16;;;10.14;46.98
44663;BME280;30381;52.754;18.258;2023-04-26T18:34:43;100631.27;;;7.87;56.22
44663;BME280;30381;52.754;18.258;2023-04-26T18:38:26;100634.17;;;7.84;56.34
44663;BME280;30381;52.754;18.258;2023-04-26T18:52:48;100648.80;;;7.48;56.93
44663;BME280;30381;52.754;18.258;2023-04-26T18:56:07;100654.04;;;7.36;56.79
44663;BME280;30381;52.754;18.258;2023-04-26T19:34:03;100675.49;;;6.17;59.17
44663;BME280;30381;52.754;18.258;2023-04-26T20:02:38;100682.90;;;5.56;62.59
44663;BME280;30381;52.754;18.258;2023-04-26T20:05:37;100683.84;;;5.49;62.74
44663;BME280;30381;52.754;18.258;2023-04-26T20:08:40;100685.84;;;5.42;62.95
44663;BME280;30381;52.754;18.258;2023-04-26T20:11:33;100683.70;;;5.35;63.16
44663;BME280;30381;52.754;18.258;2023-04-26T20:14:25;100683.79;;;5.28;63.49
44663;BME280;30381;52.754;18.258;2023-04-26T20:17:06;100686.36;;;5.22;63.62
44663;BME280;30381;52.754;18.258;2023-04-26T20:19:34;100685.96;;;5.18;63.73
44663;BME280;30381;52.754;18.258;2023-04-26T20:23:04;100689.44;;;5.17;63.85
44663;BME280;30381;52.754;18.258;2023-04-26T20:25:51;100687.67;;;5.09;64.24
44663;BME280;30381;52.754;18.258;2023-04-26T20:28:44;100686.86;;;5.06;64.64
44663;BME280;30381;52.754;18.258;2023-04-26T20:31:32;100685.25;;;5.06;65.21
44663;BME280;30381;52.754;18.258;2023-04-26T20:34:32;100683.71;;;5.04;65.38
44663;BME280;30381;52.754;18.258;2023-04-26T20:37:39;100685.48;;;5.01;65.69